createdAt,value
2022-09-28T00:01:06.101Z,2.25
2022-09-28T00:03:33.047Z,2.08
2022-09-28T00:06:08.777Z,1.80
2022-09-28T00:08:36.840Z,2.60
2022-09-28T00:11:06.333Z,1.95
2022-09-28T00:13:34.150Z,1.80
2022-09-28T00:16:07.191Z,1.92
2022-09-28T00:18:36.141Z,1.80
2022-09-28T00:21:04.759Z,2.10
2022-09-28T00:23:32.179Z,1.60
2022-09-28T00:26:04.161Z,2.03
2022-09-28T00:28:31.613Z,2.00
2022-09-28T00:30:59.227Z,1.70
2022-09-28T00:33:26.235Z,1.67
2022-09-28T00:35:58.158Z,1.90
2022-09-28T00:38:29.625Z,2.05
2022-09-28T00:40:57.027Z,1.77
2022-09-28T00:43:25.084Z,1.95
2022-09-28T00:46:10.405Z,2.15
2022-09-28T00:48:40.586Z,1.67
2022-09-28T00:51:12.572Z,1.67
2022-09-28T00:53:43.356Z,1.65
2022-09-28T00:56:16.260Z,1.58
2022-09-28T00:58:47.991Z,1.77
2022-09-28T01:01:15.146Z,1.50
2022-09-28T01:03:45.449Z,2.15
2022-09-28T01:06:21.681Z,2.00
2022-09-28T01:08:51.764Z,1.80
2022-09-28T01:11:20.081Z,1.75
2022-09-28T01:13:49.690Z,1.58
2022-09-28T01:16:34.625Z,1.45
2022-09-28T01:19:42.461Z,1.80
2022-09-28T01:22:37.129Z,1.77
2022-09-28T01:25:12.028Z,1.80
2022-09-28T01:27:41.724Z,2.10
2022-09-28T01:30:11.679Z,2.03
2022-09-28T01:32:55.263Z,1.98
2022-09-28T01:35:47.690Z,1.65
2022-09-28T01:38:49.289Z,1.92
2022-09-28T01:41:17.929Z,1.77
2022-09-28T01:43:57.580Z,1.77
2022-09-28T01:46:36.140Z,2.60
2022-09-28T01:49:12.928Z,1.60
2022-09-28T01:51:52.561Z,1.70
2022-09-28T01:54:26.984Z,2.08
2022-09-28T01:57:29.094Z,2.20
2022-09-28T02:00:02.972Z,1.80
2022-09-28T02:02:49.673Z,2.10
2022-09-28T02:05:33.989Z,2.10
2022-09-28T02:08:13.652Z,2.00
2022-09-28T02:10:45.457Z,2.13
2022-09-28T02:13:28.368Z,2.10
2022-09-28T02:16:14.690Z,1.70
2022-09-28T02:18:42.973Z,2.30
2022-09-28T02:21:39.083Z,1.92
2022-09-28T02:24:40.323Z,2.13
2022-09-28T02:27:16.536Z,1.90
2022-09-28T02:29:43.634Z,1.80
2022-09-28T02:32:11.226Z,1.92
2022-09-28T02:34:38.253Z,2.05
2022-09-28T02:37:05.804Z,1.90
2022-09-28T02:39:32.776Z,2.00
2022-09-28T02:42:19.998Z,1.92
2022-09-28T02:45:13.924Z,2.22
2022-09-28T02:47:56.984Z,1.90
2022-09-28T02:50:51.984Z,1.73
2022-09-28T02:53:57.069Z,2.00
2022-09-28T02:56:41.198Z,2.00
2022-09-28T02:59:35.777Z,2.05
2022-09-28T03:04:38.773Z,2.20
2022-09-28T03:07:29.139Z,2.30
2022-09-28T03:10:05.642Z,1.77
2022-09-28T03:12:33.583Z,1.92
2022-09-28T03:15:14.613Z,2.03
2022-09-28T03:17:42.565Z,2.40
2022-09-28T03:20:11.680Z,1.85
2022-09-28T03:22:39.112Z,2.72
2022-09-28T03:25:07.839Z,2.40
2022-09-28T03:27:37.941Z,2.15
2022-09-28T03:30:06.059Z,2.13
2022-09-28T03:32:33.298Z,2.38
2022-09-28T03:35:00.663Z,1.92
2022-09-28T03:37:28.806Z,1.90
2022-09-28T03:39:55.922Z,2.38
2022-09-28T03:42:22.897Z,2.35
2022-09-28T03:44:51.427Z,2.10
2022-09-28T03:47:19.385Z,2.67
2022-09-28T03:49:46.384Z,2.70
2022-09-28T03:52:15.137Z,2.78
2022-09-28T03:54:44.676Z,2.97
2022-09-28T03:57:15.420Z,2.83
2022-09-28T03:59:42.539Z,2.60
2022-09-28T04:02:09.645Z,2.80
2022-09-28T04:04:36.568Z,2.50
2022-09-28T04:07:03.538Z,3.08
2022-09-28T04:09:30.484Z,2.40
2022-09-28T04:12:03.812Z,2.55
2022-09-28T04:14:31.051Z,3.03
2022-09-28T04:16:58.001Z,2.53
2022-09-28T04:19:26.936Z,2.00
2022-09-28T04:22:14.295Z,2.78
2022-09-28T04:24:43.506Z,2.63
2022-09-28T04:27:28.813Z,2.67
2022-09-28T04:29:55.805Z,3.00
2022-09-28T04:32:22.844Z,2.97
2022-09-28T04:34:51.943Z,2.58
2022-09-28T04:37:19.119Z,2.67
2022-09-28T04:39:48.390Z,3.20
2022-09-28T04:42:18.237Z,2.80
2022-09-28T04:44:45.721Z,2.80
2022-09-28T04:47:13.012Z,2.97
2022-09-28T04:49:45.863Z,3.30
2022-09-28T04:52:26.776Z,2.90
2022-09-28T04:54:53.773Z,3.60
2022-09-28T04:57:20.983Z,2.83
2022-09-28T04:59:47.908Z,3.17
2022-09-28T05:02:15.248Z,3.65
2022-09-28T05:05:01.240Z,3.95
2022-09-28T05:07:38.776Z,3.13
2022-09-28T05:10:07.156Z,4.35
2022-09-28T05:12:34.560Z,3.30
2022-09-28T05:15:01.556Z,4.03
2022-09-28T05:17:28.736Z,3.83
2022-09-28T05:20:09.981Z,3.20
2022-09-28T05:22:36.895Z,3.45
2022-09-28T05:25:05.464Z,4.32
2022-09-28T05:27:44.073Z,3.72
2022-09-28T05:30:24.931Z,3.53
2022-09-28T05:33:10.295Z,3.90
2022-09-28T05:35:53.305Z,3.38
2022-09-28T05:38:21.601Z,4.45
2022-09-28T05:40:48.678Z,3.95
2022-09-28T05:43:15.743Z,4.05
2022-09-28T05:45:43.755Z,3.95
2022-09-28T05:48:10.977Z,3.83
2022-09-28T05:50:38.007Z,4.47
2022-09-28T05:53:10.400Z,3.95
2022-09-28T05:55:39.848Z,4.35
2022-09-28T05:58:08.183Z,3.65
2022-09-28T06:00:36.091Z,3.70
2022-09-28T06:03:08.929Z,3.78
2022-09-28T06:05:39.364Z,5.03
2022-09-28T06:08:08.482Z,5.72
2022-09-28T06:10:35.877Z,4.40
2022-09-28T06:13:03.592Z,4.10
2022-09-28T06:15:32.576Z,3.88
2022-09-28T06:18:07.147Z,4.82
2022-09-28T06:20:54.013Z,5.10
2022-09-28T06:23:30.865Z,4.80
2022-09-28T06:26:00.016Z,4.85
2022-09-28T06:28:27.022Z,4.43
2022-09-28T06:30:54.435Z,4.28
2022-09-28T06:33:22.056Z,5.15
2022-09-28T06:35:48.995Z,5.15
2022-09-28T06:38:16.036Z,5.55
2022-09-28T06:40:43.142Z,4.93
2022-09-28T06:43:14.707Z,5.35
2022-09-28T06:46:00.939Z,5.63
2022-09-28T06:48:31.777Z,5.25
2022-09-28T06:50:58.920Z,5.45
2022-09-28T06:53:28.898Z,5.60
2022-09-28T06:56:16.104Z,4.93
2022-09-28T06:58:43.088Z,5.07
2022-09-28T07:01:11.069Z,5.30
2022-09-28T07:03:57.858Z,5.38
2022-09-28T07:06:48.031Z,4.85
2022-09-28T07:09:48.147Z,5.82
2022-09-28T07:12:27.835Z,5.38
2022-09-28T07:15:14.775Z,5.38
2022-09-28T07:17:55.027Z,6.18
2022-09-28T07:20:26.954Z,5.20
2022-09-28T07:23:08.196Z,6.22
2022-09-28T07:25:58.120Z,6.22
2022-09-28T07:28:34.112Z,4.95
2022-09-28T07:31:19.426Z,6.30
2022-09-28T07:34:12.324Z,6.07
2022-09-28T07:36:59.679Z,6.20
2022-09-28T07:39:26.629Z,5.32
2022-09-28T07:41:56.741Z,6.57
2022-09-28T07:44:28.155Z,6.13
2022-09-28T07:46:55.960Z,6.10
2022-09-28T07:49:30.851Z,5.90
2022-09-28T07:52:36.171Z,6.30
2022-09-28T07:55:08.300Z,6.15
2022-09-28T07:58:01.033Z,5.60
2022-09-28T08:00:41.235Z,6.75
2022-09-28T08:03:08.222Z,6.50
2022-09-28T08:05:35.857Z,5.35
2022-09-28T08:08:03.066Z,5.75
2022-09-28T08:10:30.076Z,5.88
2022-09-28T08:13:16.416Z,5.75
2022-09-28T08:16:00.207Z,5.38
2022-09-28T08:18:49.375Z,6.70
2022-09-28T08:21:34.941Z,6.18
2022-09-28T08:24:01.979Z,6.03
2022-09-28T08:26:29.193Z,5.78
2022-09-28T08:28:56.188Z,5.60
2022-09-28T08:32:02.017Z,5.47
2022-09-28T08:34:36.472Z,5.32
2022-09-28T08:37:23.700Z,5.40
2022-09-28T08:40:18.603Z,5.10
2022-09-28T08:43:31.260Z,5.80
2022-09-28T08:46:01.378Z,4.78
2022-09-28T08:49:30.872Z,5.88
2022-09-28T08:52:28.082Z,4.93
2022-09-28T08:55:18.864Z,5.28
2022-09-28T08:57:55.419Z,4.45
2022-09-28T09:00:36.664Z,4.28
2022-09-28T09:03:07.497Z,3.63
2022-09-28T09:06:00.327Z,3.47
2022-09-28T09:08:55.053Z,3.00
2022-09-28T09:11:50.168Z,3.05
2022-09-28T09:14:44.381Z,3.38
2022-09-28T09:17:36.867Z,3.90
2022-09-28T09:20:59.128Z,2.95
2022-09-28T09:24:01.593Z,2.85
2022-09-28T09:26:39.358Z,2.75
2022-09-28T09:29:14.099Z,2.33
2022-09-28T09:32:05.732Z,2.17
2022-09-28T09:34:41.757Z,1.20
2022-09-28T09:38:06.486Z,1.40
2022-09-28T09:41:22.522Z,1.25
2022-09-28T09:44:15.348Z,1.10
2022-09-28T09:47:07.856Z,1.03
2022-09-28T09:49:45.377Z,1.50
2022-09-28T09:52:23.518Z,1.20
2022-09-28T09:55:02.117Z,1.38
2022-09-28T09:57:54.553Z,0.82
2022-09-28T10:00:34.781Z,0.85
2022-09-28T10:03:22.990Z,0.93
2022-09-28T10:06:11.759Z,0.88
2022-09-28T10:08:48.154Z,1.08
2022-09-28T10:11:29.951Z,0.90
2022-09-28T10:13:57.849Z,0.93
2022-09-28T10:16:48.083Z,0.82
2022-09-28T10:19:35.028Z,0.82
2022-09-28T10:22:30.568Z,0.80
2022-09-28T10:25:00.276Z,0.73
2022-09-28T10:27:34.471Z,0.70
2022-09-28T10:32:46.640Z,1.10
2022-09-28T10:35:15.070Z,0.85
2022-09-28T10:37:55.093Z,1.00
2022-09-28T10:40:49.604Z,0.60
2022-09-28T10:43:28.805Z,0.60
2022-09-28T10:46:12.534Z,0.60
2022-09-28T10:49:18.674Z,1.00
2022-09-28T10:51:56.167Z,0.88
2022-09-28T10:54:29.613Z,1.27
2022-09-28T10:56:59.253Z,0.90
2022-09-28T10:59:47.156Z,1.00
2022-09-28T11:02:30.367Z,1.17
2022-09-28T11:05:07.106Z,1.30
2022-09-28T11:07:47.435Z,1.23
2022-09-28T11:10:26.622Z,0.90
2022-09-28T11:12:58.652Z,1.27
2022-09-28T11:15:33.012Z,0.85
2022-09-28T11:18:28.322Z,1.00
2022-09-28T11:21:11.595Z,0.70
2022-09-28T11:23:42.185Z,1.13
2022-09-28T11:26:18.736Z,0.75
2022-09-28T11:28:51.761Z,1.30
2022-09-28T11:31:28.919Z,0.80
2022-09-28T11:34:31.011Z,0.80
2022-09-28T11:37:33.216Z,1.15
2022-09-28T11:40:19.002Z,0.88
2022-09-28T11:43:15.809Z,0.88
2022-09-28T11:46:06.274Z,0.80
2022-09-28T11:48:42.380Z,0.80
2022-09-28T11:51:18.273Z,0.68
2022-09-28T11:53:54.203Z,0.70
2022-09-28T11:56:32.811Z,0.82
2022-09-28T11:59:17.377Z,1.13
2022-09-28T12:01:55.677Z,0.85
2022-09-28T12:05:26.871Z,0.70
2022-09-28T12:08:25.485Z,0.85
2022-09-28T12:11:20.596Z,0.93
2022-09-28T12:14:20.721Z,0.70
2022-09-28T12:17:07.118Z,0.70
2022-09-28T12:19:47.920Z,0.80
2022-09-28T12:22:24.294Z,0.50
2022-09-28T12:24:55.503Z,0.70
2022-09-28T12:27:42.187Z,0.60
2022-09-28T12:30:22.408Z,0.60
2022-09-28T12:33:12.129Z,0.50
2022-09-28T12:35:47.696Z,0.60
2022-09-28T12:38:35.557Z,0.50
2022-09-28T12:41:43.547Z,0.57
2022-09-28T12:44:32.745Z,0.70
2022-09-28T12:47:22.488Z,2.17
2022-09-28T12:50:38.167Z,1.48
2022-09-28T12:52:53.572Z,7.20
2022-09-28T12:55:36.145Z,1.85
2022-09-28T12:58:38.296Z,8.70
2022-09-28T13:01:25.785Z,5.05
2022-09-28T13:04:19.134Z,3.75
2022-09-28T13:06:51.556Z,0.85
2022-09-28T13:09:34.129Z,0.70
2022-09-28T13:12:51.562Z,1.02
2022-09-28T13:15:27.863Z,1.10
2022-09-28T13:18:07.790Z,0.75
2022-09-28T13:20:40.410Z,0.82
2022-09-28T13:23:23.751Z,0.60
2022-09-28T13:26:14.583Z,0.50
2022-09-28T13:28:43.515Z,0.70
2022-09-28T13:31:12.568Z,0.60
2022-09-28T13:33:44.153Z,0.50
2022-09-28T13:36:28.508Z,0.60
2022-09-28T13:38:57.021Z,0.60
2022-09-28T13:41:29.071Z,0.50
2022-09-28T13:44:07.851Z,0.40
2022-09-28T13:47:12.148Z,0.60
2022-09-28T13:50:03.897Z,0.45
2022-09-28T13:52:36.035Z,0.65
2022-09-28T13:55:15.064Z,0.57
2022-09-28T13:57:46.309Z,0.60
2022-09-28T14:00:22.416Z,0.70
2022-09-28T14:03:01.498Z,0.80
2022-09-28T14:06:00.857Z,0.57
2022-09-28T14:08:31.081Z,0.60
2022-09-28T14:11:27.032Z,0.77
2022-09-28T14:14:13.763Z,0.60
2022-09-28T14:16:42.311Z,0.88
2022-09-28T14:19:09.229Z,1.02
2022-09-28T14:21:58.184Z,0.50
2022-09-28T14:24:45.081Z,0.68
2022-09-28T14:27:26.917Z,0.55
2022-09-28T14:30:12.151Z,0.60
2022-09-28T14:32:52.626Z,0.50
2022-09-28T14:35:27.366Z,0.60
2022-09-28T14:38:19.211Z,0.70
2022-09-28T14:41:10.889Z,0.50
2022-09-28T14:43:58.784Z,0.47
2022-09-28T14:46:25.705Z,0.50
2022-09-28T14:49:03.633Z,0.60
2022-09-28T14:51:30.550Z,0.60
2022-09-28T14:54:12.244Z,0.65
2022-09-28T14:57:02.582Z,0.60
2022-09-28T14:59:36.050Z,0.68
2022-09-28T15:02:19.641Z,1.05
2022-09-28T15:04:54.414Z,0.70
2022-09-28T15:07:43.451Z,0.70
2022-09-28T15:10:33.303Z,0.43
2022-09-28T15:13:06.120Z,0.82
2022-09-28T15:15:39.116Z,0.77
2022-09-28T15:18:28.466Z,0.57
2022-09-28T15:20:56.271Z,0.68
2022-09-28T15:23:37.678Z,0.80
2022-09-28T15:26:08.459Z,0.65
2022-09-28T15:28:43.383Z,0.50
2022-09-28T15:31:19.184Z,0.60
2022-09-28T15:34:04.861Z,0.50
2022-09-28T15:36:37.262Z,0.57
2022-09-28T15:39:12.937Z,0.55
2022-09-28T15:41:42.724Z,0.50
2022-09-28T15:44:12.438Z,0.60
2022-09-28T15:46:42.337Z,0.50
2022-09-28T15:49:38.671Z,0.50
2022-09-28T15:52:06.350Z,0.80
2022-09-28T15:54:42.680Z,0.93
2022-09-28T15:57:32.859Z,0.80
2022-09-28T16:00:00.866Z,0.80
2022-09-28T16:02:28.154Z,0.70
2022-09-28T16:05:02.533Z,0.73
2022-09-28T16:07:41.496Z,0.60
2022-09-28T16:10:15.391Z,0.60
2022-09-28T16:12:50.457Z,0.60
2022-09-28T16:15:30.493Z,0.73
2022-09-28T16:18:18.185Z,0.40
2022-09-28T16:20:47.976Z,0.50
2022-09-28T16:23:28.249Z,0.63
2022-09-28T16:26:08.801Z,0.45
2022-09-28T16:28:45.906Z,0.60
2022-09-28T16:31:12.971Z,0.80
2022-09-28T16:33:46.670Z,0.50
2022-09-28T16:36:17.190Z,0.60
2022-09-28T16:38:47.955Z,0.60
2022-09-28T16:41:21.361Z,0.60
2022-09-28T16:43:48.836Z,0.57
2022-09-28T16:46:17.721Z,0.50
2022-09-28T16:48:49.040Z,0.60
2022-09-28T16:51:17.520Z,0.50
2022-09-28T16:54:03.949Z,0.65
2022-09-28T16:56:33.221Z,0.63
2022-09-28T16:59:01.190Z,0.70
2022-09-28T17:01:31.340Z,0.70
2022-09-28T17:03:58.565Z,0.60
2022-09-28T17:06:26.886Z,0.80
2022-09-28T17:08:56.708Z,0.70
2022-09-28T17:11:24.941Z,0.70
2022-09-28T17:13:56.796Z,0.77
2022-09-28T17:16:57.316Z,1.00
2022-09-28T17:19:23.647Z,0.90
2022-09-28T17:21:52.849Z,0.90
2022-09-28T17:24:20.369Z,0.60
2022-09-28T17:26:50.925Z,0.77
2022-09-28T17:29:18.644Z,0.82
2022-09-28T17:31:46.802Z,0.80
2022-09-28T17:34:16.271Z,1.10
2022-09-28T17:36:44.211Z,0.90
2022-09-28T17:39:13.526Z,0.95
2022-09-28T17:41:41.212Z,0.73
2022-09-28T17:44:08.796Z,0.95
2022-09-28T17:46:38.717Z,1.00
2022-09-28T17:49:07.335Z,0.93
2022-09-28T17:51:37.733Z,1.00
2022-09-28T17:54:06.896Z,1.23
2022-09-28T17:56:34.579Z,0.90
2022-09-28T17:59:07.408Z,1.52
2022-09-28T18:01:37.621Z,0.90
2022-09-28T18:04:08.151Z,1.15
2022-09-28T18:06:37.080Z,0.90
2022-09-28T18:09:05.239Z,0.93
2022-09-28T18:11:33.674Z,1.30
2022-09-28T18:14:01.049Z,1.48
2022-09-28T18:16:29.126Z,1.35
2022-09-28T18:18:56.418Z,1.23
2022-09-28T18:21:23.357Z,1.40
2022-09-28T18:23:50.480Z,1.52
2022-09-28T18:26:20.809Z,1.23
2022-09-28T18:28:47.916Z,1.52
2022-09-28T18:31:15.965Z,1.48
2022-09-28T18:33:43.434Z,1.90
2022-09-28T18:36:10.648Z,2.00
2022-09-28T18:38:38.640Z,2.40
2022-09-28T18:41:17.261Z,2.80
2022-09-28T18:43:49.411Z,2.80
2022-09-28T18:46:20.623Z,3.40
2022-09-28T18:48:47.854Z,3.80
2022-09-28T18:51:15.180Z,4.10
2022-09-28T18:53:42.527Z,9.27
2022-09-28T18:56:11.836Z,10.07
2022-09-28T18:58:40.273Z,10.80
2022-09-28T19:01:32.598Z,10.45
2022-09-28T19:04:00.503Z,9.68
2022-09-28T19:06:28.351Z,8.95
2022-09-28T19:08:56.617Z,7.65
2022-09-28T19:11:24.609Z,6.78
2022-09-28T19:13:52.784Z,5.80
2022-09-28T19:16:22.195Z,4.90
2022-09-28T19:18:50.305Z,4.63
2022-09-28T19:21:17.656Z,4.53
2022-09-28T19:23:49.343Z,4.28
2022-09-28T19:26:21.057Z,5.15
2022-09-28T19:28:48.672Z,4.95
2022-09-28T19:31:16.515Z,5.20
2022-09-28T19:33:45.059Z,4.20
2022-09-28T19:36:18.273Z,3.47
2022-09-28T19:38:46.292Z,4.13
2022-09-28T19:41:40.756Z,4.25
2022-09-28T19:44:25.076Z,4.10
2022-09-28T19:47:00.157Z,4.10
2022-09-28T19:49:33.226Z,4.35
2022-09-28T19:52:16.942Z,3.33
2022-09-28T19:54:44.613Z,3.95
2022-09-28T19:57:13.253Z,3.25
2022-09-28T19:59:40.265Z,2.30
2022-09-28T20:02:10.167Z,2.40
2022-09-28T20:04:37.301Z,1.95
2022-09-28T20:07:05.066Z,1.90
2022-09-28T20:09:32.753Z,1.58
2022-09-28T20:11:59.712Z,1.50
2022-09-28T20:14:32.073Z,1.38
2022-09-28T20:17:03.731Z,1.58
2022-09-28T20:19:30.629Z,1.80
2022-09-28T20:21:59.484Z,2.05
2022-09-28T20:24:28.790Z,1.50
2022-09-28T20:26:55.946Z,1.70
2022-09-28T20:29:24.290Z,1.98
2022-09-28T20:31:51.978Z,1.77
2022-09-28T20:34:19.149Z,1.70
2022-09-28T20:36:46.097Z,1.80
2022-09-28T20:39:13.448Z,1.70
2022-09-28T20:41:41.243Z,1.77
2022-09-28T20:44:08.173Z,1.70
2022-09-28T20:46:35.887Z,2.10
2022-09-28T20:49:03.990Z,2.65
2022-09-28T20:51:31.219Z,3.70
2022-09-28T20:53:58.984Z,4.35
2022-09-28T20:56:37.547Z,4.00
2022-09-28T20:59:10.132Z,3.72
2022-09-28T21:01:37.278Z,2.80
2022-09-28T21:04:05.676Z,3.25
2022-09-28T21:06:38.848Z,4.55
2022-09-28T21:09:07.744Z,4.80
2022-09-28T21:11:35.834Z,5.25
2022-09-28T21:14:04.951Z,4.97
2022-09-28T21:16:33.755Z,4.88
2022-09-28T21:19:00.740Z,4.03
2022-09-28T21:21:28.227Z,6.93
2022-09-28T21:23:56.617Z,4.68
2022-09-28T21:26:26.823Z,6.30
2022-09-28T21:28:55.638Z,6.70
2022-09-28T21:31:28.565Z,4.15
2022-09-28T21:33:57.167Z,2.80
2022-09-28T21:36:24.473Z,4.88
2022-09-28T21:38:51.479Z,5.63
2022-09-28T21:41:18.367Z,2.53
2022-09-28T21:43:45.849Z,2.78
2022-09-28T21:46:12.802Z,3.03
2022-09-28T21:48:40.398Z,3.03
2022-09-28T21:51:09.250Z,3.25
2022-09-28T21:53:37.650Z,2.92
2022-09-28T21:56:08.928Z,3.88
2022-09-28T21:58:36.441Z,3.78
2022-09-28T22:01:14.861Z,3.13
2022-09-28T22:03:43.974Z,2.70
2022-09-28T22:06:11.603Z,2.50
2022-09-28T22:08:39.136Z,3.17
2022-09-28T22:11:09.102Z,2.70
2022-09-28T22:13:39.853Z,2.70
2022-09-28T22:16:07.564Z,2.33
2022-09-28T22:18:34.802Z,2.50
2022-09-28T22:21:03.907Z,2.28
2022-09-28T22:23:30.832Z,2.17
2022-09-28T22:26:05.237Z,2.00
2022-09-28T22:28:32.155Z,2.33
2022-09-28T22:30:59.544Z,2.20
2022-09-28T22:33:27.191Z,2.33
2022-09-28T22:35:54.966Z,1.98
2022-09-28T22:38:23.996Z,2.35
2022-09-28T22:40:54.557Z,2.10
2022-09-28T22:43:23.487Z,2.47
2022-09-28T22:46:00.121Z,1.98
2022-09-28T22:48:27.186Z,2.22
2022-09-28T22:50:54.052Z,2.22
2022-09-28T22:53:21.201Z,2.05
2022-09-28T22:55:48.096Z,2.20
2022-09-28T22:58:15.031Z,2.53
2022-09-28T23:00:43.170Z,2.30
2022-09-28T23:03:10.603Z,2.33
2022-09-28T23:05:37.516Z,2.20
2022-09-28T23:08:04.588Z,2.33
2022-09-28T23:10:31.592Z,2.08
2022-09-28T23:12:58.848Z,2.05
2022-09-28T23:15:26.300Z,2.10
2022-09-28T23:17:53.997Z,2.47
2022-09-28T23:20:21.775Z,2.38
2022-09-28T23:22:49.697Z,2.20
2022-09-28T23:25:18.808Z,2.55
2022-09-28T23:27:50.263Z,2.47
2022-09-28T23:30:19.925Z,2.03
2022-09-28T23:32:46.832Z,2.60
2022-09-28T23:35:14.564Z,2.50
2022-09-28T23:37:41.420Z,2.30
2022-09-28T23:40:08.626Z,2.55
2022-09-28T23:42:35.687Z,2.50
2022-09-28T23:45:02.648Z,3.35
2022-09-28T23:47:29.553Z,4.30
2022-09-28T23:49:56.503Z,3.03
2022-09-28T23:52:23.411Z,2.60
2022-09-28T23:54:50.382Z,2.47
2022-09-28T23:57:17.345Z,2.38
2022-09-28T23:59:44.270Z,2.45
